Terminal Aerodrome Forecast
Issued by NWS Cleveland, OH

Home | Current Version | Previous Version | Graphics & Text | Print | Product List | Glossary On
Versions: 1 2 3 4 5 6 7 8 9 10 11 12 13 14 15 16 17 18 19 20 21 22 23 24 25
000
FTUS41 KCLE 221100
TAFTOL
TAF
KTOL 221130Z 2212/2312 00000KT 3SM BR SKC
     FM221300 12005KT 6SM HZ SCT045 BKN120
     FM221800 12007KT P6SM OVC045
     FM222200 12007KT P6SM OVC025
     FM230300 10006KT 5SM BR VCSH OVC025
     FM230400 10007KT 4SM -RA BR OVC015
     FM230800 10008KT 4SM -RA BR OVC007=

USA.gov is the U.S. government's official web portal to all federal, state and local government web resources and services.